logo
Search for airport 
image banner adimage banner adimage banner ad
image banner ad

HKHT - Loresho Sorensen

Located in , Kenya

ICAO - , IATA -

Data provided by Airmate  

General information

Coordinates: S1°15'1" E36°44'39"
Elevation is 6038 feet MSL.
 
View others Airports in Nairobi Province

Operational data

Special qualification required
Current time UTC:
Current local time:
Weather at : HKNW - Nairobi Wilson ( 11 km )
TAF: TAF HKNW 132300Z 1400/1424 VRB02KT 9999 SCT021 BKN080 TEMPO 1401/1405 -RA SCT007 BKN017 BECMG 1408/1411 09010KT NSW BKN025 TEMPO 1413/1417 -SHRA FEW023CB BKN023 BECMG 1420/1421 VRB02KT -RA SCT020 BKN080
View NOTAMs / SUP AIP / TFR affecting this airport [VIEW]
Communications frequencies: [VIEW]

Runways:

Airport contact information

Address: Kenya

Satellite view of HKHT